createdAt,value
2022-08-12T00:00:08.049Z,25.67
2022-08-12T00:02:03.225Z,25.63
2022-08-12T00:03:09.827Z,25.60
2022-08-12T00:04:35.709Z,25.58
2022-08-12T00:06:03.827Z,26.06
2022-08-12T00:07:26.341Z,25.66
2022-08-12T00:08:55.246Z,25.97
2022-08-12T00:10:16.081Z,25.65
2022-08-12T00:11:37.848Z,25.68
2022-08-12T00:12:58.498Z,25.56
2022-08-12T00:14:19.621Z,25.59
2022-08-12T00:15:40.606Z,25.52
2022-08-12T00:17:01.406Z,25.92
2022-08-12T00:18:23.010Z,25.64
2022-08-12T00:19:43.726Z,25.43
2022-08-12T00:21:04.983Z,25.47
2022-08-12T00:22:26.401Z,25.45
2022-08-12T00:23:47.170Z,25.35
2022-08-12T00:25:07.923Z,25.26
2022-08-12T00:26:32.631Z,25.61
2022-08-12T00:27:53.419Z,25.32
2022-08-12T00:29:14.148Z,25.34
2022-08-12T00:30:35.348Z,25.34
2022-08-12T00:31:56.176Z,25.32
2022-08-12T00:33:17.153Z,25.26
2022-08-12T00:34:37.962Z,25.75
2022-08-12T00:35:58.493Z,25.24
2022-08-12T00:37:20.265Z,25.20
2022-08-12T00:38:41.286Z,25.13
2022-08-12T00:40:02.078Z,25.12
2022-08-12T00:41:27.284Z,25.30
2022-08-12T00:42:29.427Z,25.09
2022-08-12T00:43:35.149Z,25.29
2022-08-12T00:44:44.277Z,25.34
2022-08-12T00:46:06.648Z,25.02
2022-08-12T00:47:24.750Z,25.10
2022-08-12T00:48:28.897Z,25.09
2022-08-12T00:49:31.661Z,25.10
2022-08-12T00:50:36.086Z,25.24
2022-08-12T00:51:58.567Z,25.16
2022-08-12T00:53:02.521Z,25.11
2022-08-12T00:54:04.763Z,24.94
2022-08-12T00:55:07.157Z,24.96
2022-08-12T00:56:09.904Z,24.89
2022-08-12T00:57:18.429Z,25.12
2022-08-12T00:58:24.548Z,25.16
2022-08-12T00:59:26.773Z,24.84
2022-08-12T01:00:29.203Z,24.85
2022-08-12T01:02:10.261Z,24.94
2022-08-12T01:02:58.648Z,24.85
2022-08-12T01:04:21.500Z,24.91
2022-08-12T01:05:44.043Z,24.94
2022-08-12T01:07:06.243Z,24.93
2022-08-12T01:08:28.556Z,25.00
2022-08-12T01:09:49.622Z,24.83
2022-08-12T01:11:12.650Z,24.88
2022-08-12T01:12:17.560Z,24.91
2022-08-12T01:13:21.378Z,24.87
2022-08-12T01:14:25.074Z,24.72
2022-08-12T01:15:28.187Z,24.65
2022-08-12T01:16:30.787Z,24.68
2022-08-12T01:17:33.767Z,24.64
2022-08-12T01:18:39.723Z,24.81
2022-08-12T01:19:42.176Z,24.62
2022-08-12T01:20:47.389Z,24.99
2022-08-12T01:22:14.564Z,24.95
2022-08-12T01:23:54.158Z,25.11
2022-08-12T01:25:10.010Z,24.90
2022-08-12T01:26:19.384Z,24.94
2022-08-12T01:27:23.859Z,24.81
2022-08-12T01:28:28.291Z,24.81
2022-08-12T01:29:34.573Z,24.76
2022-08-12T01:30:39.570Z,24.59
2022-08-12T01:31:45.628Z,24.79
2022-08-12T01:32:49.841Z,24.76
2022-08-12T01:34:36.422Z,24.95
2022-08-12T01:35:34.947Z,24.81
2022-08-12T01:36:41.175Z,24.89
2022-08-12T01:37:48.862Z,24.89
2022-08-12T01:38:51.783Z,24.61
2022-08-12T01:40:33.832Z,24.78
2022-08-12T01:41:21.660Z,24.83
2022-08-12T01:42:26.360Z,24.82
2022-08-12T01:43:30.354Z,24.67
2022-08-12T01:44:33.973Z,24.60
2022-08-12T01:45:47.675Z,24.80
2022-08-12T01:47:22.440Z,24.80
2022-08-12T01:48:53.978Z,24.80
2022-08-12T01:50:20.910Z,24.76
2022-08-12T01:52:21.508Z,24.81
2022-08-12T01:53:11.333Z,24.58
2022-08-12T01:54:16.826Z,24.54
2022-08-12T01:55:22.681Z,24.44
2022-08-12T01:56:28.136Z,24.42
2022-08-12T01:57:58.770Z,24.45
2022-08-12T01:59:22.396Z,24.31
2022-08-12T02:00:43.550Z,24.40
2022-08-12T02:01:59.992Z,24.33
2022-08-12T02:03:59.296Z,24.43
2022-08-12T02:05:23.209Z,24.37
2022-08-12T02:07:13.103Z,24.37
2022-08-12T02:09:06.080Z,24.40
2022-08-12T02:10:50.546Z,24.20
2022-08-12T02:12:13.249Z,24.20
2022-08-12T02:13:41.894Z,24.19
2022-08-12T02:15:03.274Z,24.07
2022-08-12T02:16:19.947Z,24.11
2022-08-12T02:17:54.725Z,24.09
2022-08-12T02:19:02.102Z,24.02
2022-08-12T02:20:35.232Z,24.11
2022-08-12T02:22:26.551Z,24.01
2022-08-12T02:23:28.952Z,23.62
2022-08-12T02:24:32.735Z,23.75
2022-08-12T02:25:41.405Z,23.83
2022-08-12T02:26:46.736Z,23.64
2022-08-12T02:27:52.076Z,23.61
2022-08-12T02:28:54.418Z,23.44
2022-08-12T02:29:57.277Z,23.41
2022-08-12T02:31:04.759Z,23.61
2022-08-12T02:32:08.570Z,23.50
2022-08-12T02:33:12.056Z,23.50
2022-08-12T02:34:16.604Z,23.44
2022-08-12T02:35:22.684Z,23.54
2022-08-12T02:36:25.437Z,23.31
2022-08-12T02:37:31.358Z,23.51
2022-08-12T02:38:34.352Z,23.30
2022-08-12T02:39:40.795Z,23.37
2022-08-12T02:40:47.775Z,23.29
2022-08-12T02:41:52.373Z,23.35
2022-08-12T02:43:06.403Z,23.47
2022-08-12T02:44:09.991Z,23.28
2022-08-12T02:45:16.256Z,23.31
2022-08-12T02:46:25.973Z,23.30
2022-08-12T02:47:58.494Z,23.30
2022-08-12T02:49:00.887Z,23.32
2022-08-12T02:50:05.323Z,23.24
2022-08-12T02:51:11.814Z,23.26
2022-08-12T02:52:15.374Z,23.17
2022-08-12T02:53:18.415Z,23.08
2022-08-12T02:54:22.490Z,23.17
2022-08-12T02:55:28.592Z,23.17
2022-08-12T02:56:50.336Z,23.08
2022-08-12T02:57:55.201Z,22.84
2022-08-12T02:58:58.637Z,22.92
2022-08-12T03:00:07.323Z,22.90
2022-08-12T03:01:10.268Z,22.85
2022-08-12T03:02:16.531Z,23.07
2022-08-12T03:03:21.475Z,22.98
2022-08-12T03:04:26.672Z,23.03
2022-08-12T03:05:33.125Z,23.04
2022-08-12T03:06:53.146Z,23.05
2022-08-12T03:08:00.326Z,22.99
2022-08-12T03:09:03.938Z,22.85
2022-08-12T03:10:16.149Z,22.98
2022-08-12T03:11:29.127Z,23.07
2022-08-12T03:12:49.470Z,23.10
2022-08-12T03:13:58.000Z,22.98
2022-08-12T03:15:05.231Z,22.96
2022-08-12T03:16:08.129Z,22.80
2022-08-12T03:17:25.920Z,23.07
2022-08-12T03:18:32.804Z,23.01
2022-08-12T03:20:09.436Z,22.95
2022-08-12T03:21:01.953Z,22.72
2022-08-12T03:22:13.078Z,22.72
2022-08-12T03:23:29.030Z,22.72
2022-08-12T03:24:34.222Z,22.65
2022-08-12T03:25:40.859Z,22.81
2022-08-12T03:26:47.372Z,22.80
2022-08-12T03:27:55.972Z,22.54
2022-08-12T03:28:58.319Z,22.59
2022-08-12T03:30:00.610Z,22.57
2022-08-12T03:31:08.459Z,22.87
2022-08-12T03:32:36.178Z,22.54
2022-08-12T03:33:37.294Z,22.79
2022-08-12T03:34:41.011Z,22.66
2022-08-12T03:35:46.285Z,22.61
2022-08-12T03:36:50.322Z,22.49
2022-08-12T03:38:01.969Z,22.61
2022-08-12T03:39:36.353Z,22.59
2022-08-12T03:41:16.342Z,22.85
2022-08-12T03:42:33.515Z,22.75
2022-08-12T03:44:06.684Z,22.81
2022-08-12T03:45:46.391Z,22.81
2022-08-12T03:47:23.614Z,22.73
2022-08-12T03:48:44.532Z,22.81
2022-08-12T03:50:06.221Z,22.39
2022-08-12T03:51:29.373Z,22.39
2022-08-12T03:52:50.691Z,22.28
2022-08-12T03:54:12.009Z,22.34
2022-08-12T03:55:33.369Z,22.33
2022-08-12T03:56:54.190Z,22.23
2022-08-12T03:58:14.787Z,22.21
2022-08-12T03:59:35.647Z,22.19
2022-08-12T04:00:38.425Z,22.32
2022-08-12T04:01:41.331Z,22.29
2022-08-12T04:02:44.112Z,22.14
2022-08-12T04:03:52.965Z,22.17
2022-08-12T04:04:56.183Z,22.22
2022-08-12T04:05:58.526Z,22.12
2022-08-12T04:07:03.217Z,22.30
2022-08-12T04:08:10.691Z,22.17
2022-08-12T04:09:15.951Z,22.15
2022-08-12T04:10:19.678Z,22.20
2022-08-12T04:11:47.139Z,22.08
2022-08-12T04:13:18.505Z,22.51
2022-08-12T04:14:20.812Z,22.64
2022-08-12T04:15:25.980Z,22.40
2022-08-12T04:16:28.822Z,22.21
2022-08-12T04:17:32.009Z,22.31
2022-08-12T04:18:35.417Z,22.21
2022-08-12T04:19:38.416Z,22.24
2022-08-12T04:20:43.004Z,22.25
2022-08-12T04:22:02.358Z,22.28
2022-08-12T04:23:07.353Z,22.34
2022-08-12T04:24:10.662Z,22.35
2022-08-12T04:25:13.187Z,22.35
2022-08-12T04:26:16.395Z,22.31
2022-08-12T04:27:18.646Z,22.34
2022-08-12T04:28:28.175Z,22.71
2022-08-12T04:30:17.219Z,22.40
2022-08-12T04:30:52.773Z,22.42
2022-08-12T04:31:55.992Z,22.50
2022-08-12T04:32:58.208Z,22.44
2022-08-12T04:34:01.111Z,22.52
2022-08-12T04:35:04.581Z,22.69
2022-08-12T04:36:10.390Z,22.88
2022-08-12T04:37:13.078Z,22.66
2022-08-12T04:38:17.363Z,22.80
2022-08-12T04:39:22.007Z,22.75
2022-08-12T04:40:28.209Z,22.81
2022-08-12T04:41:31.907Z,22.68
2022-08-12T04:42:34.197Z,22.61
2022-08-12T04:43:59.791Z,22.64
2022-08-12T04:44:58.558Z,22.68
2022-08-12T04:46:01.145Z,22.71
2022-08-12T04:47:03.559Z,22.72
2022-08-12T04:48:06.815Z,22.75
2022-08-12T04:49:09.083Z,22.73
2022-08-12T04:50:33.955Z,22.86
2022-08-12T04:51:37.504Z,22.74
2022-08-12T04:52:39.753Z,22.75
2022-08-12T04:53:42.378Z,22.78
2022-08-12T04:54:45.236Z,22.89
2022-08-12T04:55:48.044Z,22.82
2022-08-12T04:57:03.521Z,23.00
2022-08-12T04:58:08.499Z,23.01
2022-08-12T04:59:12.156Z,22.84
2022-08-12T05:00:15.743Z,22.98
2022-08-12T05:01:18.453Z,22.94
2022-08-12T05:02:22.622Z,23.04
2022-08-12T05:03:28.440Z,23.33
2022-08-12T05:04:51.697Z,23.23
2022-08-12T05:05:57.761Z,23.19
2022-08-12T05:06:59.981Z,23.16
2022-08-12T05:08:02.426Z,23.20
2022-08-12T05:09:11.143Z,23.22
2022-08-12T05:10:17.023Z,23.44
2022-08-12T05:11:23.108Z,23.60
2022-08-12T05:12:28.399Z,23.60
2022-08-12T05:13:37.561Z,23.72
2022-08-12T05:14:40.066Z,23.40
2022-08-12T05:16:00.287Z,23.56
2022-08-12T05:17:06.641Z,23.55
2022-08-12T05:18:19.470Z,23.59
2022-08-12T05:19:22.936Z,23.63
2022-08-12T05:20:26.187Z,23.73
2022-08-12T05:21:28.487Z,23.82
2022-08-12T05:22:30.959Z,23.77
2022-08-12T05:23:40.395Z,24.01
2022-08-12T05:24:44.147Z,23.83
2022-08-12T05:25:50.117Z,24.08
2022-08-12T05:26:52.528Z,23.91
2022-08-12T05:27:58.643Z,23.98
2022-08-12T05:29:01.554Z,23.93
2022-08-12T05:30:05.529Z,24.00
2022-08-12T05:31:12.507Z,23.72
2022-08-12T05:32:20.534Z,23.83
2022-08-12T05:33:26.642Z,23.98
2022-08-12T05:34:30.543Z,24.03
2022-08-12T05:35:39.935Z,24.23
2022-08-12T05:36:44.137Z,24.10
2022-08-12T05:37:46.355Z,24.06
2022-08-12T05:38:57.789Z,24.03
2022-08-12T05:40:00.233Z,23.89
2022-08-12T05:41:05.873Z,24.31
2022-08-12T05:42:09.271Z,24.17
2022-08-12T05:43:12.073Z,24.25
2022-08-12T05:44:16.225Z,24.33
2022-08-12T05:45:18.393Z,24.43
2022-08-12T05:46:22.626Z,24.67
2022-08-12T05:47:24.847Z,24.49
2022-08-12T05:48:45.175Z,24.58
2022-08-12T05:49:47.400Z,24.64
2022-08-12T05:50:49.653Z,24.59
2022-08-12T05:51:51.968Z,24.64
2022-08-12T05:52:54.178Z,24.79
2022-08-12T05:53:56.884Z,24.83
2022-08-12T05:55:00.688Z,24.87
2022-08-12T05:56:03.030Z,25.03
2022-08-12T05:57:05.416Z,25.02
2022-08-12T05:58:08.177Z,24.94
2022-08-12T05:59:11.968Z,25.18
2022-08-12T06:00:16.517Z,25.16
2022-08-12T06:02:11.343Z,25.16
2022-08-12T06:02:42.755Z,25.12
2022-08-12T06:03:45.029Z,25.05
2022-08-12T06:04:47.218Z,25.13
2022-08-12T06:05:54.409Z,25.08
2022-08-12T06:06:58.204Z,25.22
2022-08-12T06:08:05.998Z,25.43
2022-08-12T06:09:13.202Z,25.56
2022-08-12T06:10:32.193Z,25.85
2022-08-12T06:11:35.009Z,25.63
2022-08-12T06:12:37.379Z,25.65
2022-08-12T06:13:53.911Z,25.89
2022-08-12T06:14:58.329Z,26.09
2022-08-12T06:16:01.078Z,26.44
2022-08-12T06:17:05.120Z,26.72
2022-08-12T06:18:15.904Z,27.00
2022-08-12T06:19:19.178Z,27.23
2022-08-12T06:20:26.732Z,27.47
2022-08-12T06:21:33.308Z,28.00
2022-08-12T06:22:35.587Z,28.69
2022-08-12T06:23:42.418Z,29.38
2022-08-12T06:24:44.727Z,29.96
2022-08-12T06:25:46.900Z,30.23
2022-08-12T06:26:49.154Z,30.62
2022-08-12T06:28:07.591Z,31.12
2022-08-12T06:29:10.615Z,31.31
2022-08-12T06:30:27.726Z,31.47
2022-08-12T06:31:36.151Z,31.73
2022-08-12T06:32:51.632Z,31.98
2022-08-12T06:35:23.651Z,32.31
2022-08-12T06:35:48.300Z,32.41
2022-08-12T06:36:50.226Z,32.51
2022-08-12T06:37:57.628Z,32.92
2022-08-12T06:39:00.295Z,32.90
2022-08-12T06:40:04.035Z,32.96
2022-08-12T06:41:27.490Z,33.54
2022-08-12T06:42:48.794Z,33.25
2022-08-12T06:44:05.890Z,33.37
2022-08-12T06:45:12.345Z,34.03
2022-08-12T06:46:14.862Z,34.24
2022-08-12T06:47:19.419Z,34.39
2022-08-12T06:48:21.690Z,34.80
2022-08-12T06:49:24.086Z,34.54
2022-08-12T06:50:26.777Z,34.73
2022-08-12T06:51:32.426Z,35.14
2022-08-12T06:52:35.090Z,35.16
2022-08-12T06:53:39.079Z,35.75
2022-08-12T06:54:45.945Z,35.40
2022-08-12T06:55:57.909Z,35.73
2022-08-12T06:57:04.763Z,36.09
2022-08-12T06:58:10.484Z,36.04
2022-08-12T06:59:14.732Z,36.46
2022-08-12T07:00:28.468Z,36.52
2022-08-12T07:01:36.380Z,36.61
2022-08-12T07:02:39.022Z,36.86
2022-08-12T07:03:41.372Z,36.71
2022-08-12T07:04:43.531Z,37.02
2022-08-12T07:05:46.103Z,36.58
2022-08-12T07:06:49.473Z,36.82
2022-08-12T07:08:01.457Z,36.70
2022-08-12T07:09:15.849Z,36.30
2022-08-12T07:10:33.643Z,36.66
2022-08-12T07:11:35.981Z,36.53
2022-08-12T07:12:38.234Z,36.43
2022-08-12T07:14:11.657Z,36.44
2022-08-12T07:15:08.781Z,36.09
2022-08-12T07:16:14.684Z,36.70
2022-08-12T07:17:17.242Z,36.59
2022-08-12T07:18:20.287Z,37.08
2022-08-12T07:19:22.667Z,36.69
2022-08-12T07:20:51.237Z,37.15
2022-08-12T07:22:00.192Z,37.47
2022-08-12T07:23:05.730Z,37.45
2022-08-12T07:24:08.003Z,36.94
2022-08-12T07:25:29.009Z,37.60
2022-08-12T07:26:31.239Z,37.78
2022-08-12T07:27:40.997Z,38.36
2022-08-12T07:28:44.029Z,37.88
2022-08-12T07:29:58.052Z,38.49
2022-08-12T07:31:09.085Z,38.73
2022-08-12T07:32:11.287Z,38.82
2022-08-12T07:33:13.590Z,38.47
2022-08-12T07:34:17.198Z,38.07
2022-08-12T07:35:20.565Z,38.62
2022-08-12T07:36:23.073Z,38.71
2022-08-12T07:37:25.226Z,38.80
2022-08-12T07:38:30.717Z,39.10
2022-08-12T07:39:33.082Z,39.12
2022-08-12T07:40:35.317Z,39.07
2022-08-12T07:41:37.631Z,39.53
2022-08-12T07:42:41.522Z,39.64
2022-08-12T07:43:50.441Z,39.58
2022-08-12T07:44:53.041Z,39.35
2022-08-12T07:45:55.746Z,38.94
2022-08-12T07:46:57.940Z,38.85
2022-08-12T07:48:00.241Z,38.89
2022-08-12T07:49:08.679Z,40.08
2022-08-12T07:50:13.132Z,40.10
2022-08-12T07:51:25.627Z,40.03
2022-08-12T07:52:28.742Z,40.19
2022-08-12T07:53:31.308Z,40.17
2022-08-12T07:54:33.487Z,40.18
2022-08-12T07:55:36.652Z,40.04
2022-08-12T07:56:40.757Z,40.09
2022-08-12T07:57:54.209Z,39.71
2022-08-12T07:58:58.971Z,39.67
2022-08-12T08:00:05.866Z,39.47
2022-08-12T08:01:15.505Z,39.90
2022-08-12T08:02:17.746Z,39.27
2022-08-12T08:03:20.001Z,39.69
2022-08-12T08:04:40.842Z,39.72
2022-08-12T08:05:49.577Z,39.58
2022-08-12T08:06:52.189Z,39.98
2022-08-12T08:08:01.795Z,40.12
2022-08-12T08:09:05.151Z,40.18
2022-08-12T08:10:10.851Z,39.75
2022-08-12T08:11:31.712Z,39.53
2022-08-12T08:12:52.504Z,39.97
2022-08-12T08:13:54.736Z,40.31
2022-08-12T08:14:58.432Z,40.65
2022-08-12T08:16:03.508Z,40.79
2022-08-12T08:17:06.683Z,41.09
2022-08-12T08:18:11.603Z,41.44
2022-08-12T08:19:20.684Z,40.99
2022-08-12T08:20:25.044Z,41.25
2022-08-12T08:21:32.871Z,41.19
2022-08-12T08:22:41.328Z,40.96
2022-08-12T08:24:05.247Z,41.20
2022-08-12T08:25:35.037Z,41.39
2022-08-12T08:26:32.574Z,41.45
2022-08-12T08:27:47.841Z,42.08
2022-08-12T08:28:50.630Z,42.16
2022-08-12T08:29:53.653Z,41.90
2022-08-12T08:30:55.944Z,41.25
2022-08-12T08:32:01.346Z,40.95
2022-08-12T08:33:04.171Z,40.54
2022-08-12T08:34:49.249Z,40.61
2022-08-12T08:35:49.180Z,40.59
2022-08-12T08:36:52.020Z,40.45
2022-08-12T08:38:10.165Z,41.45
2022-08-12T08:39:21.492Z,41.54
2022-08-12T08:40:42.290Z,40.87
2022-08-12T08:42:16.362Z,40.84
2022-08-12T08:43:20.374Z,40.80
2022-08-12T08:44:22.660Z,40.54
2022-08-12T08:45:25.036Z,40.58
2022-08-12T08:46:27.595Z,40.47
2022-08-12T08:47:29.792Z,40.18
2022-08-12T08:48:33.463Z,40.45
2022-08-12T08:49:37.645Z,41.01
2022-08-12T08:50:39.996Z,41.18
2022-08-12T08:51:45.086Z,41.55
2022-08-12T08:52:48.873Z,41.87
2022-08-12T08:53:52.854Z,41.55
2022-08-12T08:54:55.353Z,41.99
2022-08-12T08:56:04.996Z,41.98
2022-08-12T08:57:08.508Z,42.76
2022-08-12T08:58:12.011Z,43.11
2022-08-12T08:59:14.525Z,42.94
2022-08-12T09:00:19.486Z,43.23
2022-08-12T09:01:22.535Z,43.49
2022-08-12T09:02:24.769Z,43.40
2022-08-12T09:05:08.017Z,42.46
2022-08-12T09:06:14.540Z,43.37
2022-08-12T09:07:51.891Z,43.09
2022-08-12T09:08:43.823Z,42.47
2022-08-12T09:10:02.016Z,42.21
2022-08-12T09:12:07.225Z,42.03
2022-08-12T09:14:46.758Z,41.68
2022-08-12T09:17:13.822Z,42.15
2022-08-12T09:18:26.716Z,42.18
2022-08-12T09:19:33.504Z,42.01
2022-08-12T09:20:37.028Z,42.82
2022-08-12T09:21:54.517Z,43.59
2022-08-12T09:22:58.840Z,43.18
2022-08-12T09:24:06.149Z,43.09
2022-08-12T09:25:10.994Z,43.02
2022-08-12T09:26:29.242Z,42.56
2022-08-12T09:28:54.025Z,43.32
2022-08-12T09:30:08.780Z,43.83
2022-08-12T09:32:07.740Z,44.32
2022-08-12T09:33:04.440Z,44.40
2022-08-12T09:34:27.533Z,44.94
2022-08-12T09:35:28.576Z,44.21
2022-08-12T09:36:57.970Z,43.94
2022-08-12T09:37:59.098Z,43.83
2022-08-12T09:40:05.197Z,44.02
2022-08-12T09:41:02.537Z,44.12
2022-08-12T09:42:42.984Z,44.90
2022-08-12T09:43:53.747Z,45.15
2022-08-12T09:45:18.987Z,44.57
2022-08-12T09:46:25.499Z,44.30
2022-08-12T09:47:29.644Z,44.29
2022-08-12T09:48:36.541Z,44.41
2022-08-12T09:49:42.673Z,44.30
2022-08-12T09:50:50.734Z,44.78
2022-08-12T09:51:55.545Z,44.65
2022-08-12T09:53:15.661Z,45.08
2022-08-12T09:54:33.813Z,45.27
2022-08-12T09:56:05.800Z,45.63
2022-08-12T09:58:45.433Z,44.67
2022-08-12T09:58:58.588Z,43.98
2022-08-12T10:00:16.371Z,44.37
2022-08-12T10:01:23.364Z,44.63
2022-08-12T10:02:45.681Z,44.11
2022-08-12T10:04:03.256Z,44.38
2022-08-12T10:05:13.251Z,44.68
2022-08-12T10:06:26.460Z,45.31
2022-08-12T10:07:39.623Z,44.54
2022-08-12T10:08:42.375Z,44.81
2022-08-12T10:09:58.585Z,45.41
2022-08-12T10:11:23.631Z,46.09
2022-08-12T10:13:07.257Z,45.51
2022-08-12T10:14:06.879Z,45.15
2022-08-12T10:16:02.179Z,45.64
2022-08-12T10:16:43.749Z,46.14
2022-08-12T10:18:06.267Z,45.37
2022-08-12T10:19:17.254Z,45.74
2022-08-12T10:20:19.954Z,45.22
2022-08-12T10:21:36.297Z,46.11
2022-08-12T10:22:41.497Z,45.67
2022-08-12T10:23:48.358Z,46.21
2022-08-12T10:25:17.055Z,46.45
2022-08-12T10:26:40.154Z,45.22
2022-08-12T10:28:00.851Z,44.29
2022-08-12T10:30:03.406Z,44.67
2022-08-12T10:30:59.209Z,43.60
2022-08-12T10:32:22.303Z,43.43
2022-08-12T10:33:30.707Z,43.74
2022-08-12T10:34:34.638Z,44.25
2022-08-12T10:35:38.229Z,44.88
2022-08-12T10:36:43.225Z,45.02
2022-08-12T10:38:37.290Z,44.87
2022-08-12T10:40:01.230Z,45.90
2022-08-12T10:40:37.660Z,44.45
2022-08-12T10:42:00.029Z,45.03
2022-08-12T10:43:21.235Z,44.68
2022-08-12T10:44:24.159Z,46.24
2022-08-12T10:45:26.543Z,45.68
2022-08-12T10:46:33.133Z,46.39
2022-08-12T10:48:16.102Z,45.79
2022-08-12T10:49:05.436Z,45.84
2022-08-12T10:50:33.598Z,45.81
2022-08-12T10:52:04.972Z,45.18
2022-08-12T10:52:54.157Z,45.51
2022-08-12T10:54:00.451Z,45.52
2022-08-12T10:55:06.778Z,45.92
2022-08-12T10:56:16.198Z,46.40
2022-08-12T10:58:12.755Z,47.09
2022-08-12T10:58:41.395Z,47.35
2022-08-12T11:00:30.229Z,47.24
2022-08-12T11:01:49.793Z,47.30
2022-08-12T11:04:23.262Z,47.30
2022-08-12T11:04:26.006Z,47.80
2022-08-12T11:07:06.905Z,48.86
2022-08-12T11:07:07.994Z,48.59
2022-08-12T11:08:33.732Z,48.64
2022-08-12T11:09:56.581Z,48.33
2022-08-12T11:10:56.724Z,47.62
2022-08-12T11:12:36.668Z,47.53
2022-08-12T11:13:46.663Z,47.55
2022-08-12T11:14:49.099Z,47.40
2022-08-12T11:16:19.028Z,48.04
2022-08-12T11:17:34.918Z,47.76
2022-08-12T11:18:40.896Z,45.77
2022-08-12T11:19:45.182Z,46.47
2022-08-12T11:20:48.549Z,47.08
2022-08-12T11:21:58.423Z,47.64
2022-08-12T11:23:03.809Z,47.59
2022-08-12T11:24:08.045Z,47.63
2022-08-12T11:25:55.548Z,47.05
2022-08-12T11:26:54.300Z,46.93
2022-08-12T11:27:56.603Z,46.03
2022-08-12T11:29:06.050Z,45.93
2022-08-12T11:30:31.321Z,45.59
2022-08-12T11:31:56.131Z,45.86
2022-08-12T11:32:56.531Z,45.39
2022-08-12T11:34:06.624Z,45.36
2022-08-12T11:35:22.518Z,46.33
2022-08-12T11:36:26.163Z,45.82
2022-08-12T11:37:28.410Z,45.92
2022-08-12T11:38:31.010Z,46.11
2022-08-12T11:40:56.447Z,47.05
2022-08-12T11:42:01.469Z,47.38
2022-08-12T11:43:18.625Z,48.22
2022-08-12T11:44:36.677Z,47.78
2022-08-12T11:45:46.901Z,47.33
2022-08-12T11:46:51.334Z,47.56
2022-08-12T11:47:56.567Z,47.43
2022-08-12T11:48:58.723Z,47.02
2022-08-12T11:50:01.336Z,47.45
2022-08-12T11:51:03.671Z,47.64
2022-08-12T11:52:17.569Z,47.82
2022-08-12T11:53:59.643Z,48.15
2022-08-12T11:54:50.974Z,48.53
2022-08-12T11:55:53.376Z,47.94
2022-08-12T11:56:59.138Z,47.58
2022-08-12T11:58:19.841Z,47.26
2022-08-12T12:02:09.119Z,46.70
2022-08-12T12:03:12.359Z,47.54
2022-08-12T12:04:28.939Z,47.65
2022-08-12T12:05:41.960Z,47.42
2022-08-12T12:06:52.981Z,47.94
2022-08-12T12:08:37.669Z,48.05
2022-08-12T12:09:17.867Z,47.82
2022-08-12T12:10:21.216Z,47.78
2022-08-12T12:11:23.514Z,47.05
2022-08-12T12:12:25.752Z,46.76
2022-08-12T12:14:08.271Z,47.22
2022-08-12T12:14:54.200Z,47.21
2022-08-12T12:15:57.268Z,46.67
2022-08-12T12:17:02.435Z,46.38
2022-08-12T12:18:04.696Z,46.42
2022-08-12T12:19:08.824Z,45.78
2022-08-12T12:20:12.899Z,45.99
2022-08-12T12:21:15.754Z,46.32
2022-08-12T12:22:23.565Z,45.87
2022-08-12T12:23:30.890Z,45.25
2022-08-12T12:24:38.440Z,45.71
2022-08-12T12:26:07.368Z,45.72
2022-08-12T12:27:03.790Z,45.69
2022-08-12T12:28:06.592Z,45.93
2022-08-12T12:30:18.042Z,45.18
2022-08-12T12:30:31.083Z,45.08
2022-08-12T12:32:09.908Z,45.03
2022-08-12T12:32:55.594Z,44.41
2022-08-12T12:33:58.880Z,44.80
2022-08-12T12:35:14.591Z,43.88
2022-08-12T12:36:29.690Z,44.61
2022-08-12T12:38:04.002Z,45.49
2022-08-12T12:38:55.079Z,46.10
2022-08-12T12:40:00.506Z,46.24
2022-08-12T12:41:16.483Z,46.20
2022-08-12T12:42:47.562Z,46.07
2022-08-12T12:43:43.581Z,45.65
2022-08-12T12:44:58.895Z,45.39
2022-08-12T12:46:01.100Z,45.29
2022-08-12T12:47:03.458Z,45.65
2022-08-12T12:48:09.788Z,45.83
2022-08-12T12:49:15.353Z,45.93
2022-08-12T12:50:34.999Z,45.57
2022-08-12T12:51:49.298Z,45.87
2022-08-12T12:53:00.478Z,45.18
2022-08-12T12:54:06.388Z,45.36
2022-08-12T12:55:13.355Z,45.31
2022-08-12T12:56:31.526Z,45.73
2022-08-12T12:58:00.031Z,46.22
2022-08-12T12:59:06.163Z,45.24
2022-08-12T13:00:16.033Z,45.75
2022-08-12T13:01:26.663Z,45.24
2022-08-12T13:02:32.314Z,45.89
2022-08-12T13:03:48.840Z,45.74
2022-08-12T13:04:51.792Z,46.25
2022-08-12T13:05:57.053Z,46.36
2022-08-12T13:06:59.236Z,46.37
2022-08-12T13:08:18.730Z,47.12
2022-08-12T13:09:35.828Z,46.37
2022-08-12T13:10:38.723Z,46.26
2022-08-12T13:11:53.027Z,46.56
2022-08-12T13:12:55.977Z,46.73
2022-08-12T13:14:10.561Z,46.16
2022-08-12T13:15:42.832Z,45.75
2022-08-12T13:16:43.830Z,45.54
2022-08-12T13:18:02.284Z,45.75
2022-08-12T13:19:05.599Z,46.12
2022-08-12T13:20:10.727Z,46.29
2022-08-12T13:21:33.287Z,46.14
2022-08-12T13:22:38.793Z,45.87
2022-08-12T13:23:44.817Z,44.79
2022-08-12T13:24:56.546Z,45.37
2022-08-12T13:25:59.401Z,45.02
2022-08-12T13:27:01.577Z,45.31
2022-08-12T13:28:05.241Z,45.29
2022-08-12T13:29:11.449Z,45.72
2022-08-12T13:30:17.725Z,45.97
2022-08-12T13:31:22.236Z,45.65
2022-08-12T13:32:31.372Z,44.74
2022-08-12T13:34:32.870Z,45.14
2022-08-12T13:35:04.507Z,45.11
2022-08-12T13:36:20.971Z,44.36
2022-08-12T13:37:27.993Z,44.31
2022-08-12T13:38:54.273Z,44.25
2022-08-12T13:39:56.886Z,44.39
2022-08-12T13:40:59.035Z,43.93
2022-08-12T13:42:01.276Z,44.34
2022-08-12T13:43:06.850Z,44.23
2022-08-12T13:44:10.417Z,43.17
2022-08-12T13:45:13.694Z,42.55
2022-08-12T13:46:16.295Z,43.04
2022-08-12T13:47:21.965Z,43.43
2022-08-12T13:48:24.204Z,43.20
2022-08-12T13:49:55.269Z,43.42
2022-08-12T13:50:55.354Z,43.77
2022-08-12T13:51:57.567Z,43.62
2022-08-12T13:53:23.089Z,43.56
2022-08-12T13:54:23.605Z,43.36
2022-08-12T13:55:30.780Z,43.99
2022-08-12T13:56:35.528Z,43.96
2022-08-12T13:57:44.454Z,44.17
2022-08-12T13:58:49.173Z,43.39
2022-08-12T14:00:00.293Z,42.34
2022-08-12T14:01:05.754Z,42.21
2022-08-12T14:02:12.548Z,42.40
2022-08-12T14:03:16.278Z,42.24
2022-08-12T14:04:19.104Z,42.68
2022-08-12T14:05:31.233Z,42.08
2022-08-12T14:06:41.206Z,42.25
2022-08-12T14:08:01.694Z,42.45
2022-08-12T14:09:18.047Z,41.94
2022-08-12T14:10:36.361Z,42.14
2022-08-12T14:11:39.731Z,42.24
2022-08-12T14:12:54.691Z,42.63
2022-08-12T14:14:05.272Z,42.25
2022-08-12T14:15:15.610Z,42.32
2022-08-12T14:16:38.005Z,42.55
2022-08-12T14:17:41.731Z,42.79
2022-08-12T14:18:48.521Z,42.61
2022-08-12T14:20:10.126Z,42.42
2022-08-12T14:21:18.326Z,42.47
2022-08-12T14:22:26.005Z,42.24
2022-08-12T14:24:04.552Z,42.73
2022-08-12T14:24:54.741Z,42.47
2022-08-12T14:25:58.855Z,42.65
2022-08-12T14:27:02.075Z,42.70
2022-08-12T14:28:12.754Z,42.67
2022-08-12T14:29:37.897Z,42.44
2022-08-12T14:31:00.335Z,42.51
2022-08-12T14:32:02.906Z,42.26
2022-08-12T14:33:05.725Z,42.03
2022-08-12T14:34:13.305Z,41.08
2022-08-12T14:35:15.742Z,41.67
2022-08-12T14:36:23.319Z,41.74
2022-08-12T14:37:56.508Z,41.25
2022-08-12T14:38:52.474Z,41.40
2022-08-12T14:39:54.747Z,41.04
2022-08-12T14:41:00.456Z,41.12
2022-08-12T14:42:02.758Z,40.87
2022-08-12T14:43:06.203Z,41.11
2022-08-12T14:44:59.458Z,41.44
2022-08-12T14:45:44.584Z,41.53
2022-08-12T14:46:55.705Z,41.66
2022-08-12T14:47:58.978Z,41.88
2022-08-12T14:49:27.519Z,41.65
2022-08-12T14:50:58.148Z,41.69
2022-08-12T14:53:15.412Z,41.11
2022-08-12T14:57:23.451Z,39.50
2022-08-12T14:58:27.090Z,39.42
2022-08-12T14:59:58.430Z,39.15
2022-08-12T15:01:21.521Z,39.66
2022-08-12T15:02:25.952Z,39.19
2022-08-12T15:03:52.553Z,38.82
2022-08-12T15:05:03.449Z,38.75
2022-08-12T15:06:43.613Z,39.50
2022-08-12T15:07:34.433Z,39.40
2022-08-12T15:08:52.456Z,39.91
2022-08-12T15:09:54.698Z,40.17
2022-08-12T15:10:59.747Z,40.15
2022-08-12T15:12:05.386Z,40.17
2022-08-12T15:13:19.667Z,40.45
2022-08-12T15:14:26.644Z,40.83
2022-08-12T15:15:34.116Z,40.45
2022-08-12T15:16:38.510Z,40.76
2022-08-12T15:17:40.932Z,40.55
2022-08-12T15:18:55.135Z,40.64
2022-08-12T15:20:31.858Z,39.99
2022-08-12T15:21:20.852Z,40.01
2022-08-12T15:22:37.518Z,39.88
2022-08-12T15:23:54.969Z,39.66
2022-08-12T15:24:57.874Z,39.02
2022-08-12T15:26:03.571Z,39.42